Terminal Aerodrome Forecast
Issued by NWS

Home | Current Version | Previous Version | Text Only | Print | Product List | Glossary On
Versions: 1 2 3 4 5 6 7 8 9 10 11 12 13 14 15 16 17 18 19 20
000
FTUS45 KPSR 201100
TAFBLH
TAF
KBLH 201120Z 2012/2112 16006KT P6SM BKN120 BKN250
     FM201400 16010KT P6SM VCSH BKN100 BKN250
     FM201800 22010KT P6SM SCT120 BKN250
     FM210600 22007KT P6SM FEW120 SCT250=

USA.gov is the U.S. government's official web portal to all federal, state and local government web resources and services.